Time;durP1;ratioP1;P1;durP2;ratioP2;P2;SDS_P1;SDS_P2;PMS_P1;PMS_P2;Temp;Humidity;BMP_temperature;BMP_pressure;BME280_temperature;BME280_humidity;BME280_pressure;Samples;Min_cycle;Max_cycle;Signal;HPM_P1;HPM_P2
2022/05/19 06:43:55;;;;;;;5.80;2.13;;;21.70;81.40;;;;;;5009934;26;20131;-76
2022/05/19 06:46:23;;;;;;;2.28;1.90;;;21.60;80.40;;;;;;5014752;28;20487;-76
2022/05/19 06:48:49;;;;;;;5.10;2.05;;;21.60;79.80;;;;;;5015225;28;20037;-76
2022/05/19 06:51:15;;;;;;;4.60;1.90;;;21.70;78.60;;;;;;5015053;28;20022;-76
2022/05/19 06:53:41;;;;;;;2.95;2.00;;;21.70;78.50;;;;;;5015031;28;20025;-76
2022/05/19 06:56:08;;;;;;;4.85;1.90;;;21.70;80.30;;;;;;5013876;28;20026;-76
2022/05/19 06:58:34;;;;;;;5.50;1.98;;;21.80;81.00;;;;;;5014906;28;20032;-76
2022/05/19 07:01:00;;;;;;;10.23;2.08;;;21.90;81.40;;;;;;5014795;28;20022;-76
2022/05/19 07:03:26;;;;;;;2.25;1.85;;;21.90;80.30;;;;;;5014672;28;20050;-76
2022/05/19 07:05:52;;;;;;;2.38;1.92;;;22.00;79.80;;;;;;5014589;28;20057;-76
2022/05/19 07:08:17;;;;;;;3.03;2.13;;;21.90;80.10;;;;;;5015017;28;20161;-76
2022/05/19 07:10:43;;;;;;;1.98;1.73;;;22.00;82.00;;;;;;5014672;28;20026;-77
2022/05/19 07:13:09;;;;;;;2.17;1.90;;;22.10;82.20;;;;;;5014321;28;20037;-76
2022/05/19 07:15:35;;;;;;;5.40;2.03;;;22.10;81.90;;;;;;5014714;28;20115;-76
2022/05/19 07:18:01;;;;;;;2.67;1.77;;;22.20;82.80;;;;;;5014715;28;20022;-76
2022/05/19 07:20:44;;;;;;;5.18;2.15;;;22.20;83.40;;;;;;5014253;28;20475;-76
2022/05/19 07:23:14;;;;;;;2.42;1.83;;;22.20;83.50;;;;;;5014229;28;20049;-76
2022/05/19 07:25:41;;;;;;;2.28;1.98;;;22.30;84.20;;;;;;5014020;28;20415;-76
2022/05/19 07:28:07;;;;;;;3.97;2.15;;;22.30;84.20;;;;;;5012836;28;20026;-76
2022/05/19 07:30:33;;;;;;;4.22;2.03;;;22.40;82.40;;;;;;5012601;28;20034;-76
2022/05/19 07:32:59;;;;;;;4.13;2.60;;;22.50;84.70;;;;;;5011197;28;20483;-76
2022/05/19 07:35:25;;;;;;;2.10;1.73;;;22.50;83.60;;;;;;5012388;28;20116;-76
2022/05/19 07:37:51;;;;;;;4.97;2.50;;;22.50;83.10;;;;;;5012469;28;20116;-76
2022/05/19 07:40:18;;;;;;;4.35;2.20;;;22.60;83.70;;;;;;5012440;28;20102;-76
2022/05/19 07:42:44;;;;;;;4.03;1.90;;;22.60;81.60;;;;;;4990548;28;20097;-75
2022/05/19 07:45:10;;;;;;;2.17;1.98;;;22.60;82.90;;;;;;5008451;28;20472;-76
2022/05/19 07:47:36;;;;;;;2.03;1.90;;;22.70;82.70;;;;;;5011065;28;20103;-76
2022/05/19 07:50:03;;;;;;;2.25;1.85;;;22.70;83.00;;;;;;5012205;28;20040;-76
2022/05/19 07:52:29;;;;;;;2.55;1.90;;;22.70;83.20;;;;;;5011976;28;20113;-76
2022/05/19 07:54:55;;;;;;;2.92;1.88;;;22.70;82.00;;;;;;5012138;28;20163;-76
2022/05/19 07:57:22;;;;;;;9.55;1.92;;;22.80;81.60;;;;;;5011919;28;20527;-76
2022/05/19 07:59:48;;;;;;;7.63;3.15;;;22.80;81.20;;;;;;5011427;28;20499;-76
2022/05/19 08:02:13;;;;;;;4.93;2.97;;;22.80;80.00;;;;;;5012066;28;20026;-76
2022/05/19 08:04:39;;;;;;;3.78;2.05;;;22.90;80.90;;;;;;5011919;28;20022;-76
2022/05/19 08:07:05;;;;;;;4.72;2.60;;;22.90;80.20;;;;;;5011695;28;20025;-76
2022/05/19 08:15:34;;;;;;;2.58;2.10;;;23.00;81.30;;;;;;5012277;28;20045;-76
2022/05/19 08:17:51;;;;;;;6.18;2.53;;;23.10;80.80;;;;;;5011776;28;20075;-76
2022/05/19 08:20:18;;;;;;;2.58;2.38;;;23.20;81.30;;;;;;5011676;28;20113;-76
2022/05/19 08:22:44;;;;;;;3.35;1.83;;;23.30;80.10;;;;;;5011609;28;20017;-76
2022/05/19 08:25:11;;;;;;;2.20;1.98;;;23.30;80.70;;;;;;5011589;28;21329;-76
2022/05/19 08:27:36;;;;;;;7.82;2.08;;;23.40;80.30;;;;;;5011641;28;20037;-75
2022/05/19 08:30:03;;;;;;;3.20;2.05;;;23.50;81.20;;;;;;5011339;28;20034;-76
2022/05/19 08:32:29;;;;;;;4.97;1.60;;;23.60;79.10;;;;;;5011499;28;20029;-76
2022/05/19 08:34:54;;;;;;;3.97;2.38;;;23.40;77.70;;;;;;4993778;28;20029;-76
2022/05/19 08:37:20;;;;;;;2.35;2.15;;;23.30;77.60;;;;;;5011579;28;20022;-76
2022/05/19 08:39:46;;;;;;;2.97;2.00;;;23.30;77.60;;;;;;5011613;28;20029;-75
2022/05/19 08:42:14;;;;;;;5.03;2.40;;;23.40;79.80;;;;;;5011384;28;20092;-75
2022/05/19 08:44:48;;;;;;;3.13;2.30;;;23.40;78.50;;;;;;5010078;28;20032;-76
2022/05/19 08:47:20;;;;;;;7.38;2.40;;;23.50;79.30;;;;;;5010186;28;20049;-76
2022/05/19 08:49:45;;;;;;;;;;;23.50;78.00;;;;;;5010518;28;20037;-75
2022/05/19 08:52:15;;;;;;;5.55;2.40;;;23.60;77.90;;;;;;5010928;28;19905;-76
2022/05/19 08:54:44;;;;;;;2.92;2.10;;;23.70;77.90;;;;;;5009869;28;20443;-76
2022/05/19 08:57:21;;;;;;;9.85;3.35;;;23.70;79.10;;;;;;5011198;28;20036;-76
2022/05/19 08:59:52;;;;;;;3.85;2.55;;;23.70;77.30;;;;;;5011090;28;20053;-76
2022/05/19 09:02:37;;;;;;;4.65;2.08;;;23.70;75.00;;;;;;5011261;28;20022;-76
2022/05/19 09:05:37;;;;;;;5.35;2.58;;;23.60;75.10;;;;;;5011142;28;20018;-76
2022/05/19 09:08:45;;;;;;;3.20;2.35;;;23.60;74.80;;;;;;5011165;28;20022;-76
2022/05/19 09:11:28;;;;;;;5.90;2.58;;;23.60;75.20;;;;;;4950375;29;20106;-76
2022/05/19 09:13:56;;;;;;;7.25;2.47;;;23.60;76.90;;;;;;4950291;29;20441;-76
2022/05/19 09:16:24;;;;;;;5.97;3.00;;;23.70;76.90;;;;;;4986924;28;20038;-76
2022/05/19 09:19:04;;;;;;;3.85;3.05;;;23.70;75.50;;;;;;5010928;28;20029;-76
2022/05/19 09:21:30;;;;;;;4.53;2.53;;;23.80;74.30;;;;;;5010940;28;20239;-76
2022/05/19 09:23:56;;;;;;;3.10;2.40;;;23.70;74.50;;;;;;5010741;28;20018;-76
2022/05/19 09:26:52;;;;;;;7.53;2.65;;;23.70;74.20;;;;;;5010847;28;20022;-76
2022/05/19 09:29:22;;;;;;;2.80;2.55;;;23.80;75.70;;;;;;5010906;28;20018;-76
2022/05/19 09:32:02;;;;;;;8.60;2.70;;;23.90;75.30;;;;;;5009588;28;20427;-75
2022/05/19 09:34:29;;;;;;;3.15;2.28;;;24.00;76.60;;;;;;5010738;28;20041;-75
2022/05/19 09:37:03;;;;;;;6.00;3.08;;;24.20;77.30;;;;;;5010851;28;20057;-76
2022/05/19 09:39:35;;;;;;;6.70;3.08;;;24.20;73.90;;;;;;5010720;28;20391;-76
2022/05/19 09:42:10;;;;;;;4.53;3.13;;;24.20;72.50;;;;;;5010619;28;20515;-76
2022/05/19 09:44:42;;;;;;;5.57;3.05;;;24.20;73.30;;;;;;5010682;28;20064;-76
2022/05/19 09:47:41;;;;;;;7.00;2.50;;;24.20;75.10;;;;;;5010678;28;20029;-76
2022/05/19 09:50:16;;;;;;;4.88;2.63;;;24.40;74.30;;;;;;4978006;28;20049;-76
2022/05/19 09:52:43;;;;;;;5.05;3.05;;;24.40;73.00;;;;;;5010722;28;20585;-76
2022/05/19 09:55:11;;;;;;;5.80;2.95;;;24.40;72.00;;;;;;5010614;28;20029;-76
2022/05/19 09:57:37;;;;;;;8.20;2.78;;;24.50;72.80;;;;;;5010599;28;20049;-75
2022/05/19 10:00:09;;;;;;;3.13;2.28;;;24.60;71.20;;;;;;5010490;28;20112;-76
2022/05/19 10:02:38;;;;;;;3.17;2.67;;;24.50;70.10;;;;;;5010787;28;20108;-76
2022/05/19 10:05:22;;;;;;;5.55;2.63;;;24.60;70.60;;;;;;5011843;28;20026;-76
2022/05/19 10:07:54;;;;;;;4.88;2.40;;;24.60;70.00;;;;;;5013390;28;20069;-75
2022/05/19 10:10:29;;;;;;;2.63;2.42;;;24.60;70.40;;;;;;5014090;28;20029;-76
2022/05/19 10:13:02;;;;;;;5.13;2.30;;;25.00;73.30;;;;;;5014223;28;20053;-76
2022/05/19 10:15:56;;;;;;;4.20;3.00;;;25.00;70.00;;;;;;5013625;28;20254;-76
2022/05/19 10:18:38;;;;;;;4.28;3.13;;;25.00;66.90;;;;;;5014008;28;20491;-76
2022/05/19 10:21:30;;;;;;;3.97;2.95;;;25.00;66.90;;;;;;5013932;28;20480;-76
2022/05/19 10:24:07;;;;;;;5.40;2.75;;;25.00;67.30;;;;;;5013739;28;20448;-76
2022/05/19 10:33:24;;;;;;;10.98;2.85;;;25.10;67.90;;;;;;5013997;28;20402;-76
2022/05/19 10:36:02;;;;;;;6.10;3.17;;;25.30;66.50;;;;;;5013725;28;20076;-76
2022/05/19 10:38:37;;;;;;;3.55;2.85;;;25.30;65.30;;;;;;5012302;28;20030;-76
2022/05/19 10:41:08;;;;;;;5.82;2.65;;;25.60;66.10;;;;;;5013617;28;20172;-76
2022/05/19 10:43:57;;;;;;;5.90;3.25;;;25.60;66.00;;;;;;4998889;28;20097;-76
2022/05/19 10:46:27;;;;;;;3.30;2.53;;;25.80;67.20;;;;;;4993960;28;20026;-76
2022/05/19 10:49:18;;;;;;;5.05;2.60;;;25.90;65.40;;;;;;4993907;28;20045;-76
2022/05/19 10:51:54;;;;;;;4.82;2.97;;;26.10;63.20;;;;;;4993759;28;20026;-76
2022/05/19 10:54:39;;;;;;;2.67;2.08;;;26.20;63.50;;;;;;4993772;28;20641;-76
2022/05/19 10:57:16;;;;;;;3.72;3.03;;;26.30;64.50;;;;;;4993659;28;20030;-76
2022/05/19 11:00:15;;;;;;;4.32;2.80;;;26.30;61.30;;;;;;4993496;28;20089;-75
2022/05/19 11:02:54;;;;;;;3.65;2.50;;;26.50;62.90;;;;;;4990107;28;20030;-76
2022/05/19 11:05:57;;;;;;;4.53;2.50;;;26.60;65.10;;;;;;4993489;28;20022;-75
2022/05/19 11:08:49;;;;;;;6.68;2.53;;;26.80;63.20;;;;;;4946362;28;20559;-76
2022/05/19 11:11:18;;;;;;;;;;;26.90;64.40;;;;;;4985145;28;20069;-75
2022/05/19 11:14:01;;;;;;;5.60;3.10;;;27.00;62.70;;;;;;4993241;28;20527;-76
2022/05/19 11:16:34;;;;;;;5.68;3.08;;;27.00;60.10;;;;;;4993214;28;20036;-75
2022/05/19 11:19:11;;;;;;;2.58;2.42;;;27.00;61.80;;;;;;4993113;28;20472;-75
2022/05/19 11:21:49;;;;;;;5.05;2.67;;;27.10;58.70;;;;;;4991919;28;20417;-76
2022/05/19 11:24:25;;;;;;;3.53;2.42;;;27.10;59.20;;;;;;4993098;28;20048;-75
2022/05/19 11:27:20;;;;;;;5.57;2.50;;;27.10;58.50;;;;;;4993070;28;20026;-75
2022/05/19 11:29:51;;;;;;;2.00;1.83;;;27.10;58.40;;;;;;4992623;28;20124;-75
2022/05/19 11:32:24;;;;;;;4.95;2.90;;;27.30;60.30;;;;;;4993112;28;20030;-75
2022/05/19 11:35:00;;;;;;;3.97;2.70;;;27.40;58.60;;;;;;4992822;28;20053;-76
2022/05/19 11:37:44;;;;;;;3.72;1.92;;;27.50;59.50;;;;;;4992260;28;20034;-76
2022/05/19 11:40:17;;;;;;;8.32;2.33;;;27.50;58.00;;;;;;4992469;28;20388;-76
2022/05/19 11:43:07;;;;;;;3.58;2.22;;;27.50;57.90;;;;;;4992681;28;20046;-76
2022/05/19 11:45:47;;;;;;;3.22;2.00;;;27.60;56.90;;;;;;4991046;28;20045;-75
2022/05/19 13:58:49;;;;;;;5.17;3.00;;;30.50;54.70;;;;;;6118427;22;1738530;-73
2022/05/19 14:01:32;;;;;;;5.00;2.20;;;31.00;52.90;;;;;;6164923;23;20440;-73
2022/05/19 14:04:00;;;;;;;2.78;2.45;;;31.10;53.80;;;;;;6191298;23;20012;-74
2022/05/19 14:06:30;;;;;;;4.88;2.50;;;31.00;52.70;;;;;;6191253;23;20028;-74
2022/05/19 14:08:56;;;;;;;3.40;2.33;;;30.80;52.70;;;;;;6191167;23;20007;-74
2022/05/19 14:11:22;;;;;;;2.70;2.50;;;30.70;54.70;;;;;;6191357;23;19996;-74
2022/05/19 14:13:54;;;;;;;8.07;2.58;;;30.70;54.10;;;;;;6191274;23;20001;-74
2022/05/19 14:16:21;;;;;;;5.22;2.50;;;30.90;53.20;;;;;;6191381;23;20131;-74
2022/05/19 14:18:56;;;;;;;2.58;2.10;;;30.70;52.60;;;;;;6191242;23;20441;-74
2022/05/19 14:21:25;;;;;;;3.22;2.90;;;30.90;54.10;;;;;;6191092;23;20000;-74
2022/05/19 14:23:59;;;;;;;3.55;2.85;;;30.80;52.80;;;;;;6191131;23;20448;-74
2022/05/19 14:26:32;;;;;;;3.80;2.78;;;30.80;53.10;;;;;;6191314;23;20001;-74
2022/05/19 14:29:02;;;;;;;2.75;2.25;;;31.00;54.60;;;;;;6191111;23;20003;-74
2022/05/19 14:31:56;;;;;;;3.17;2.88;;;31.40;54.10;;;;;;6191209;23;20005;-74
2022/05/19 14:34:38;;;;;;;4.53;2.40;;;31.50;51.60;;;;;;6191111;23;20392;-74
2022/05/19 14:37:16;;;;;;;5.85;2.08;;;31.70;52.70;;;;;;6191028;23;20005;-74
2022/05/19 14:39:52;;;;;;;4.00;3.63;;;31.70;51.90;;;;;;6191149;23;20084;-74
2022/05/19 14:45:16;;;;;;;6.00;2.58;;;31.00;52.50;;;;;;6191028;23;20020;-74
2022/05/19 14:47:52;;;;;;;3.78;2.65;;;31.00;51.60;;;;;;6190716;23;20055;-74
2022/05/19 14:50:23;;;;;;;3.53;2.42;;;31.00;52.40;;;;;;6190875;23;20001;-74
2022/05/19 14:52:50;;;;;;;;;;;31.40;53.00;;;;;;6191489;23;19989;-74
2022/05/19 14:55:45;;;;;;;2.72;2.58;;;31.30;51.80;;;;;;6190758;23;19905;-74
2022/05/19 14:58:21;;;;;;;3.17;2.35;;;31.50;52.70;;;;;;6187859;23;20380;-74
2022/05/19 15:00:47;;;;;;;8.52;2.65;;;31.50;51.70;;;;;;6184125;23;20008;-74
2022/05/19 15:03:13;;;;;;;2.50;2.30;;;31.40;51.30;;;;;;6184181;23;20344;-74
2022/05/19 15:05:40;;;;;;;3.60;2.83;;;31.80;52.20;;;;;;6184063;23;20001;-74
2022/05/19 15:08:09;;;;;;;2.55;2.35;;;31.90;50.30;;;;;;6183932;23;20091;-74
2022/05/19 15:10:35;;;;;;;3.15;2.53;;;32.10;50.20;;;;;;6184101;23;20001;-74
2022/05/19 15:13:03;;;;;;;2.42;2.22;;;32.00;50.00;;;;;;6184001;23;20437;-74
2022/05/19 15:15:32;;;;;;;4.30;2.45;;;32.10;50.10;;;;;;6184079;23;20028;-74
2022/05/19 15:17:58;;;;;;;2.67;2.22;;;32.00;50.90;;;;;;6184091;23;20005;-74
2022/05/19 15:20:28;;;;;;;5.20;2.47;;;32.10;50.00;;;;;;6157346;23;20021;-74
2022/05/19 15:22:55;;;;;;;8.05;2.70;;;32.40;50.10;;;;;;6184100;23;20343;-74
2022/05/19 15:25:21;;;;;;;5.38;2.47;;;32.60;51.10;;;;;;6184042;23;20449;-74
2022/05/19 15:27:48;;;;;;;7.18;2.50;;;32.60;48.80;;;;;;6183773;23;20005;-74
2022/05/19 15:30:17;;;;;;;5.82;2.67;;;32.70;48.30;;;;;;6183798;23;20080;-74
2022/05/19 15:32:43;;;;;;;3.58;2.30;;;32.80;48.20;;;;;;6183873;23;20001;-74
2022/05/19 15:35:10;;;;;;;3.35;2.40;;;32.80;48.60;;;;;;6183722;23;20002;-74
2022/05/19 15:37:36;;;;;;;3.35;2.40;;;32.90;49.10;;;;;;6183745;23;20005;-74
2022/05/19 15:40:04;;;;;;;3.67;2.33;;;32.60;49.10;;;;;;6157267;23;20012;-74
2022/05/19 15:42:30;;;;;;;3.85;2.10;;;32.40;49.00;;;;;;6183547;23;20032;-74
2022/05/19 15:44:56;;;;;;;2.67;2.13;;;32.50;49.90;;;;;;6183820;23;20005;-74
2022/05/19 15:47:30;;;;;;;3.03;1.85;;;32.30;48.40;;;;;;6183734;23;20088;-74
2022/05/19 15:49:56;;;;;;;2.60;2.40;;;32.20;49.20;;;;;;6157328;23;20332;-74
2022/05/19 15:52:22;;;;;;;2.53;2.05;;;32.50;49.30;;;;;;6183661;23;20052;-74
2022/05/19 15:54:49;;;;;;;2.30;2.15;;;32.60;48.40;;;;;;6183747;23;19998;-74
2022/05/19 15:57:14;;;;;;;5.13;2.30;;;32.70;47.50;;;;;;6183321;23;20021;-74
2022/05/19 15:59:41;;;;;;;3.85;2.30;;;32.70;47.60;;;;;;6183566;23;20388;-74
2022/05/19 16:02:24;;;;;;;5.05;2.97;;;32.70;47.90;;;;;;6183321;23;20273;-74
2022/05/19 16:04:54;;;;;;;5.30;2.30;;;32.90;48.50;;;;;;6183501;23;20001;-74
2022/05/19 16:07:20;;;;;;;2.88;2.20;;;33.10;49.10;;;;;;6183544;23;20084;-74
2022/05/19 16:09:46;;;;;;;2.40;2.10;;;33.20;48.80;;;;;;6182892;23;20028;-74
2022/05/19 16:12:12;;;;;;;7.47;2.17;;;33.30;48.60;;;;;;6157270;23;20005;-74
2022/05/19 16:14:38;;;;;;;5.68;1.83;;;33.20;46.70;;;;;;6157081;23;20007;-74
2022/05/19 16:17:04;;;;;;;6.00;2.47;;;33.00;47.10;;;;;;6183499;23;20005;-74
2022/05/19 16:19:31;;;;;;;7.47;2.47;;;32.70;46.80;;;;;;6157047;23;20005;-74
2022/05/19 16:21:57;;;;;;;4.60;2.50;;;32.70;47.10;;;;;;6157219;23;20033;-74
2022/05/19 16:24:24;;;;;;;6.13;2.40;;;33.00;47.60;;;;;;6183531;23;20273;-74
2022/05/19 16:26:49;;;;;;;4.43;2.47;;;33.30;46.70;;;;;;6183266;23;20005;-74
2022/05/19 16:29:15;;;;;;;3.83;2.58;;;33.30;46.20;;;;;;6156872;23;20040;-74
2022/05/19 16:31:41;;;;;;;2.63;2.42;;;33.20;45.10;;;;;;6183338;23;19997;-74
2022/05/19 16:34:07;;;;;;;3.30;1.90;;;33.40;46.40;;;;;;6156854;23;20009;-74
2022/05/19 16:36:36;;;;;;;5.13;2.17;;;33.60;46.70;;;;;;6183207;23;20005;-74
2022/05/19 16:39:05;;;;;;;4.28;2.35;;;33.50;45.90;;;;;;6183252;23;20001;-74
2022/05/19 16:41:30;;;;;;;2.05;1.90;;;33.70;45.10;;;;;;6183098;23;20005;-74
2022/05/19 16:43:56;;;;;;;2.60;2.40;;;33.40;45.70;;;;;;6183288;23;20304;-74
2022/05/19 16:46:22;;;;;;;11.85;3.08;;;33.30;45.90;;;;;;6183078;23;20005;-74
2022/05/19 16:48:50;;;;;;;8.13;4.10;;;33.40;46.10;;;;;;6156310;23;20325;-74
2022/05/19 16:51:16;;;;;;;3.65;2.40;;;33.30;45.80;;;;;;6183178;23;20361;-74
2022/05/19 16:59:12;;;;;;;4.93;2.67;;;32.90;46.90;;;;;;6182884;23;20071;-74
2022/05/19 17:01:37;;;;;;;3.83;2.78;;;32.90;48.00;;;;;;6182832;23;20314;-74
2022/05/19 17:04:03;;;;;;;2.55;2.00;;;32.80;47.00;;;;;;6183088;23;20059;-74
2022/05/19 17:06:29;;;;;;;4.10;2.45;;;32.50;47.30;;;;;;6182656;23;20008;-75
2022/05/19 17:08:55;;;;;;;6.65;3.95;;;32.10;48.40;;;;;;6180724;23;20007;-75
2022/05/19 17:11:22;;;;;;;3.15;2.85;;;31.40;51.60;;;;;;6182031;23;20001;-75
2022/05/19 17:13:53;;;;;;;10.10;3.75;;;31.00;52.00;;;;;;6183630;23;20001;-75
2022/05/19 17:16:20;;;;;;;6.95;2.85;;;30.70;53.10;;;;;;6181916;23;20139;-75
2022/05/19 17:18:47;;;;;;;6.32;3.45;;;30.40;53.60;;;;;;6181814;23;20449;-75
2022/05/19 17:21:13;;;;;;;4.07;3.80;;;30.20;54.90;;;;;;6155579;23;20005;-75
2022/05/19 17:23:39;;;;;;;3.72;3.42;;;30.00;54.80;;;;;;6182948;23;20001;-75
2022/05/19 17:26:06;;;;;;;9.40;3.47;;;29.70;54.70;;;;;;6182507;23;20064;-74
2022/05/19 17:28:32;;;;;;;3.75;3.55;;;29.60;54.90;;;;;;6182296;23;20047;-74
2022/05/19 17:31:03;;;;;;;4.18;3.03;;;29.40;55.60;;;;;;6182190;23;20001;-74
2022/05/19 17:33:31;;;;;;;2.83;2.22;;;29.40;55.60;;;;;;6157202;23;20028;-74
2022/05/19 17:35:57;;;;;;;2.30;2.13;;;29.40;55.80;;;;;;6157014;23;20009;-74
2022/05/19 17:38:26;;;;;;;3.85;2.70;;;29.30;55.60;;;;;;6183689;23;20307;-74
2022/05/19 17:40:52;;;;;;;5.55;2.35;;;29.30;55.90;;;;;;6153847;23;20295;-74
2022/05/19 17:43:18;;;;;;;4.88;2.30;;;29.10;56.00;;;;;;6178880;23;20008;-74
2022/05/19 17:45:47;;;;;;;2.70;2.35;;;29.00;56.20;;;;;;6179489;23;20001;-74
2022/05/19 17:48:17;;;;;;;3.03;2.53;;;28.90;55.60;;;;;;6178893;23;20036;-74
2022/05/19 17:50:43;;;;;;;5.18;2.30;;;28.80;56.40;;;;;;6152893;23;20059;-73
2022/05/19 17:53:09;;;;;;;8.18;2.40;;;28.60;57.00;;;;;;6178630;23;20005;-74
2022/05/19 17:55:39;;;;;;;3.85;2.63;;;28.40;57.40;;;;;;6178594;23;19997;-74
2022/05/19 17:58:05;;;;;;;3.78;2.40;;;28.20;58.10;;;;;;6179557;23;20024;-74
2022/05/19 18:00:31;;;;;;;7.32;2.90;;;28.00;59.00;;;;;;6181000;23;20005;-74
2022/05/19 18:02:57;;;;;;;6.40;3.45;;;27.80;59.60;;;;;;6179810;23;20008;-74
2022/05/19 18:05:25;;;;;;;3.25;2.92;;;27.70;60.40;;;;;;6180237;23;20055;-74
2022/05/19 18:07:57;;;;;;;6.85;3.78;;;27.60;60.70;;;;;;6180469;23;20008;-74
2022/05/19 18:10:27;;;;;;;6.30;3.08;;;27.50;61.00;;;;;;6179979;23;20001;-74
2022/05/19 18:12:57;;;;;;;10.80;4.05;;;27.50;61.50;;;;;;6153374;23;20001;-74
2022/05/19 18:18:22;;;;;;;3.33;2.83;;;27.20;62.80;;;;;;6179966;23;20036;-74
2022/05/19 18:20:48;;;;;;;3.92;3.35;;;27.00;63.70;;;;;;6179044;23;20361;-74
2022/05/19 18:23:14;;;;;;;4.63;3.97;;;26.80;64.70;;;;;;6179582;23;20390;-74
2022/05/19 18:25:43;;;;;;;4.82;3.75;;;26.60;65.60;;;;;;6178680;23;20001;-74
2022/05/19 18:28:10;;;;;;;3.72;3.20;;;26.50;65.80;;;;;;6178544;23;20001;-74
2022/05/19 18:30:36;;;;;;;3.95;3.65;;;26.30;66.20;;;;;;6180221;23;20008;-74
2022/05/19 18:33:06;;;;;;;5.10;3.53;;;26.20;66.40;;;;;;6179988;23;20059;-74
2022/05/19 18:35:33;;;;;;;3.70;2.90;;;26.10;66.60;;;;;;6181415;23;20004;-74
2022/05/19 18:38:00;;;;;;;3.17;2.70;;;26.00;67.10;;;;;;6155783;23;20032;-74
2022/05/19 18:45:55;;;;;;;2.70;2.22;;;25.70;68.80;;;;;;6182197;23;20016;-74
2022/05/19 18:48:21;;;;;;;6.40;2.70;;;25.60;69.00;;;;;;6181746;23;20005;-74
2022/05/19 18:50:47;;;;;;;4.32;2.78;;;25.50;69.40;;;;;;6181377;23;20024;-74
2022/05/19 18:53:12;;;;;;;5.28;2.47;;;25.50;69.60;;;;;;6182145;23;20051;-74
2022/05/19 18:55:39;;;;;;;4.25;2.42;;;25.40;69.80;;;;;;6180807;23;20021;-74
2022/05/19 18:58:05;;;;;;;2.83;2.50;;;25.40;70.10;;;;;;6133922;23;20021;-74
2022/05/19 19:00:32;;;;;;;6.38;2.75;;;25.30;70.50;;;;;;6152315;23;20001;-74
2022/05/19 19:02:58;;;;;;;2.65;2.45;;;25.20;69.50;;;;;;6153119;23;20414;-74
2022/05/19 19:05:24;;;;;;;4.65;2.38;;;25.30;68.80;;;;;;6125000;23;20333;-74
2022/05/19 19:07:51;;;;;;;4.53;2.72;;;25.30;68.70;;;;;;6151324;23;20080;-74
2022/05/19 19:10:18;;;;;;;3.13;2.83;;;25.20;68.20;;;;;;6125450;23;20089;-74
2022/05/19 19:12:44;;;;;;;2.35;2.08;;;25.20;68.80;;;;;;6151221;23;20010;-74
2022/05/19 19:15:11;;;;;;;5.97;2.60;;;25.10;69.20;;;;;;6151239;23;20052;-74
2022/05/19 19:17:37;;;;;;;4.15;2.85;;;25.00;69.70;;;;;;6151797;23;20005;-74
2022/05/19 19:20:05;;;;;;;4.45;2.38;;;24.80;70.80;;;;;;6151850;23;20009;-74
2022/05/19 19:22:31;;;;;;;2.22;2.13;;;24.70;71.40;;;;;;6124629;23;20009;-74
2022/05/19 19:24:58;;;;;;;2.92;2.10;;;24.50;71.70;;;;;;6151755;23;20405;-74
2022/05/19 19:27:24;;;;;;;6.45;3.17;;;24.50;71.70;;;;;;6123862;23;20625;-74
2022/05/19 19:29:50;;;;;;;2.45;2.25;;;24.30;72.60;;;;;;6123693;23;20006;-74
2022/05/19 19:32:17;;;;;;;5.45;2.75;;;24.20;72.80;;;;;;6152903;23;20005;-77
2022/05/19 19:34:43;;;;;;;2.90;2.67;;;24.20;72.90;;;;;;6152388;23;20028;-77
2022/05/19 19:37:09;;;;;;;4.38;2.50;;;24.20;73.80;;;;;;6126432;23;20341;-77
2022/05/19 19:39:35;;;;;;;2.67;2.45;;;24.10;74.40;;;;;;6152098;23;20060;-77
2022/05/19 19:42:00;;;;;;;3.65;2.33;;;24.20;74.90;;;;;;6151780;23;20001;-77
2022/05/19 19:44:29;;;;;;;6.43;2.90;;;24.10;74.90;;;;;;6152861;23;20001;-77
2022/05/19 19:46:55;;;;;;;2.95;2.30;;;24.00;75.40;;;;;;6152281;23;20002;-77
2022/05/19 19:49:21;;;;;;;2.85;2.65;;;23.90;75.40;;;;;;6151939;23;20004;-77
2022/05/19 19:52:00;;;;;;;4.55;3.22;;;23.90;74.80;;;;;;6152592;23;20001;-77
2022/05/19 19:54:37;;;;;;;2.38;2.28;;;23.90;73.70;;;;;;6152409;23;19998;-77
2022/05/19 19:57:06;;;;;;;11.95;2.85;;;23.80;74.20;;;;;;6126263;23;20023;-77
2022/05/19 19:59:35;;;;;;;2.85;2.13;;;23.80;74.80;;;;;;6151781;23;20512;-77
2022/05/19 20:22:40;;;;;;;3.28;3.08;;;23.10;77.90;;;;;;6149243;23;20052;-77
2022/05/19 20:25:06;;;;;;;5.22;2.65;;;23.00;78.20;;;;;;6118090;23;20060;-77
2022/05/19 20:27:37;;;;;;;3.55;2.60;;;23.00;78.20;;;;;;6125751;23;20009;-77
2022/05/19 20:30:05;;;;;;;5.65;2.75;;;22.90;78.20;;;;;;6151041;23;20052;-76
2022/05/19 20:32:34;;;;;;;2.92;2.63;;;22.80;78.60;;;;;;6152124;23;20524;-77
2022/05/19 20:35:01;;;;;;;2.45;2.33;;;22.70;78.80;;;;;;6151083;23;20021;-76
2022/05/19 20:37:27;;;;;;;7.28;2.67;;;22.70;78.50;;;;;;6149346;23;20010;-77
2022/05/19 20:39:56;;;;;;;5.20;2.72;;;22.70;78.50;;;;;;6151261;23;20060;-77
2022/05/19 20:42:22;;;;;;;3.47;2.75;;;22.70;78.30;;;;;;6150279;23;20105;-77
2022/05/19 20:44:49;;;;;;;3.22;2.47;;;22.70;78.10;;;;;;6149855;23;20355;-77
2022/05/19 20:47:16;;;;;;;2.47;2.30;;;22.60;77.90;;;;;;6125944;23;20005;-76
2022/05/19 20:49:45;;;;;;;2.90;2.70;;;22.50;78.10;;;;;;6151877;23;20474;-76
2022/05/19 20:52:12;;;;;;;2.70;2.50;;;22.50;78.40;;;;;;6151698;23;19998;-77
2022/05/19 20:54:37;;;;;;;4.60;2.35;;;22.40;78.60;;;;;;6152654;23;19998;-77
2022/05/19 20:57:04;;;;;;;3.55;2.25;;;22.50;78.40;;;;;;6123745;23;20048;-77
2022/05/19 20:59:32;;;;;;;2.95;2.13;;;22.40;77.80;;;;;;6146888;23;20005;-77
2022/05/19 21:02:11;;;;;;;2.00;1.90;;;22.40;77.90;;;;;;6148959;23;20076;-76
2022/05/19 21:14:56;;;;;;;5.60;2.50;;;22.10;78.20;;;;;;6153300;22;20417;-72
2022/05/19 21:17:22;;;;;;;5.15;2.10;;;22.10;78.40;;;;;;6206740;23;20303;-75
2022/05/19 21:19:48;;;;;;;4.07;1.98;;;22.10;78.20;;;;;;6208639;23;20043;-74
2022/05/19 21:22:13;;;;;;;6.13;2.30;;;22.00;78.10;;;;;;6211771;23;20331;-76
2022/05/19 21:27:23;;;;;;;3.20;2.35;;;22.00;78.00;;;;;;6211088;23;20012;-76
2022/05/19 21:29:49;;;;;;;2.28;2.08;;;21.90;78.40;;;;;;6211052;23;19997;-76
2022/05/19 21:32:15;;;;;;;4.70;2.20;;;21.90;78.60;;;;;;6211134;23;20007;-77
2022/05/19 21:34:41;;;;;;;7.00;2.30;;;21.80;78.70;;;;;;6212759;23;20000;-76
2022/05/19 21:37:07;;;;;;;5.30;1.95;;;21.80;78.20;;;;;;6211645;23;20008;-75
2022/05/19 21:39:36;;;;;;;2.97;2.13;;;21.90;78.60;;;;;;6213201;23;20012;-76
2022/05/19 21:42:03;;;;;;;3.45;2.05;;;21.80;78.70;;;;;;6215051;23;20004;-73
2022/05/19 21:44:30;;;;;;;2.42;1.92;;;21.70;79.10;;;;;;6214556;23;20004;-71
2022/05/19 21:46:56;;;;;;;6.18;2.10;;;21.60;79.00;;;;;;6214215;23;20328;-72
2022/05/19 21:49:22;;;;;;;3.47;2.45;;;21.50;79.70;;;;;;6214420;23;19996;-72
2022/05/19 21:57:16;;;;;;;4.18;2.50;;;21.60;79.70;;;;;;6214258;23;20020;-71
2022/05/19 21:59:42;;;;;;;4.80;1.80;;;21.60;79.70;;;;;;6213658;23;20005;-75
2022/05/19 22:02:09;;;;;;;2.33;2.13;;;21.60;78.40;;;;;;6212679;23;20063;-74
2022/05/19 22:04:34;;;;;;;6.03;2.13;;;21.50;79.30;;;;;;6212768;23;20005;-75
2022/05/19 22:09:44;;;;;;;2.97;2.35;;;21.30;80.40;;;;;;6214396;23;20039;-75
2022/05/19 22:12:10;;;;;;;2.40;2.20;;;21.40;80.00;;;;;;6213947;23;20001;-76
2022/05/19 22:14:36;;;;;;;3.75;2.45;;;21.30;80.10;;;;;;6214513;23;20332;-76
2022/05/19 22:17:02;;;;;;;2.13;1.90;;;21.00;81.20;;;;;;6214404;23;20020;-75
2022/05/19 22:19:28;;;;;;;2.55;2.30;;;21.00;81.20;;;;;;6214630;23;20071;-75
2022/05/19 22:21:54;;;;;;;3.42;2.10;;;21.00;81.50;;;;;;6213101;23;20011;-75
2022/05/19 22:24:19;;;;;;;3.08;2.28;;;21.00;81.60;;;;;;6214566;23;20008;-76
2022/05/19 22:26:45;;;;;;;3.97;2.28;;;21.00;82.00;;;;;;6214408;23;20495;-74
2022/05/19 22:29:14;;;;;;;3.35;1.95;;;21.00;81.70;;;;;;6214605;23;20058;-76
2022/05/19 22:31:40;;;;;;;2.50;2.30;;;21.00;81.60;;;;;;6214392;23;20024;-75
2022/05/19 22:34:05;;;;;;;3.05;2.40;;;21.00;81.50;;;;;;6212904;23;20017;-75
2022/05/19 22:36:31;;;;;;;4.25;2.30;;;21.10;81.60;;;;;;6214500;23;20007;-76
2022/05/19 22:38:57;;;;;;;2.17;2.00;;;21.10;81.30;;;;;;6214655;23;20459;-75
2022/05/19 22:41:22;;;;;;;2.85;2.15;;;21.10;81.40;;;;;;6214757;23;20489;-75
2022/05/19 22:43:48;;;;;;;2.67;2.00;;;21.10;81.30;;;;;;6212942;23;20317;-74
2022/05/19 22:46:14;;;;;;;2.83;2.17;;;21.00;81.60;;;;;;6214277;23;20014;-75
2022/05/19 22:48:40;;;;;;;5.72;1.90;;;20.80;82.00;;;;;;6214212;23;20329;-75
2022/05/19 22:51:05;;;;;;;4.32;2.10;;;20.80;82.40;;;;;;6212728;23;20000;-74
2022/05/19 22:53:31;;;;;;;2.33;2.13;;;20.70;82.70;;;;;;6214374;23;19996;-75
2022/05/19 22:55:57;;;;;;;2.47;2.28;;;20.70;82.80;;;;;;6214272;23;20012;-75
2022/05/19 22:58:23;;;;;;;3.38;2.35;;;20.70;83.20;;;;;;6214287;23;20013;-75
2022/05/19 23:00:49;;;;;;;3.25;2.35;;;20.70;83.40;;;;;;6214410;23;20425;-75
2022/05/19 23:03:15;;;;;;;2.25;2.15;;;20.60;83.30;;;;;;6214498;23;20009;-75
2022/05/19 23:05:41;;;;;;;2.45;2.22;;;20.70;83.60;;;;;;6214203;23;20001;-74